Time;durP1;ratioP1;P1;durP2;ratioP2;P2;SDS_P1;SDS_P2;PMS_P1;PMS_P2;Temp;Humidity;BMP_temperature;BMP_pressure;BME280_temperature;BME280_humidity;BME280_pressure;Samples;Min_cycle;Max_cycle;Signal;HPM_P1;HPM_P2
2023/01/05 00:02:09;;;;;;;;;;;10.80;99.90;;;;;;4995975;28;20370;-66
2023/01/05 00:04:35;;;;;;;;;;;10.80;99.90;;;;;;4995944;28;20343;-66
2023/01/05 00:07:00;;;;;;;;;;;10.70;99.90;;;;;;4994223;28;19905;-67
2023/01/05 00:09:25;;;;;;;;;;;10.80;99.90;;;;;;4995691;28;20309;-66
2023/01/05 00:22:52;;;;;;;;;;;10.70;99.90;;;;;;4995564;28;19976;-66
2023/01/05 00:25:21;;;;;;;;;;;10.60;99.90;;;;;;4995544;28;19909;-66
2023/01/05 00:27:49;;;;;;;;;;;10.70;99.90;;;;;;4995395;28;20020;-65
2023/01/05 00:30:16;;;;;;;;;;;10.60;99.90;;;;;;4996747;28;19914;-66
2023/01/05 00:32:42;;;;;;;;;;;10.70;99.90;;;;;;4995709;28;20001;-66
2023/01/05 00:35:08;;;;;;;;;;;10.70;99.90;;;;;;4995476;28;19953;-66
2023/01/05 00:37:34;;;;;;;;;;;10.60;99.90;;;;;;4994767;28;19922;-65
2023/01/05 00:39:59;;;;;;;;;;;10.70;99.90;;;;;;4995411;28;19972;-66
2023/01/05 00:42:25;;;;;;;;;;;10.70;99.90;;;;;;4994720;28;20362;-65
2023/01/05 00:44:50;;;;;;;;;;;10.90;99.90;;;;;;4995609;28;19917;-66
2023/01/05 00:47:16;;;;;;;;;;;10.90;99.90;;;;;;4995600;28;19963;-66
2023/01/05 00:49:41;;;;;;;;;;;10.90;99.90;;;;;;4993871;28;19906;-66
2023/01/05 00:52:07;;;;;;;;;;;10.90;99.90;;;;;;4994626;28;19905;-66
2023/01/05 00:54:32;;;;;;;;;;;10.80;99.90;;;;;;4994186;28;19920;-66
2023/01/05 00:56:58;;;;;;;;;;;10.90;99.90;;;;;;4995003;28;20044;-66
2023/01/05 00:59:23;;;;;;;;;;;10.90;99.90;;;;;;4994779;28;20016;-66
2023/01/05 01:01:50;;;;;;;;;;;11.00;99.90;;;;;;4994894;28;20437;-66
2023/01/05 01:04:16;;;;;;;;;;;10.90;99.90;;;;;;4994183;28;20331;-65
2023/01/05 01:06:41;;;;;;;;;;;10.80;99.90;;;;;;4994782;28;19916;-65
2023/01/05 01:09:07;;;;;;;;;;;10.80;99.90;;;;;;4994692;28;20004;-65
2023/01/05 01:11:32;;;;;;;;;;;10.80;99.90;;;;;;4995103;28;19914;-66
2023/01/05 01:13:58;;;;;;;;;;;10.70;99.90;;;;;;4995695;28;19976;-65
2023/01/05 01:16:23;;;;;;;;;;;10.80;99.90;;;;;;4994909;28;19960;-65
2023/01/05 01:18:49;;;;;;;;;;;10.70;99.90;;;;;;4993629;28;19912;-66
2023/01/05 01:21:14;;;;;;;;;;;10.80;99.90;;;;;;4997136;28;19906;-65
2023/01/05 01:23:40;;;;;;;;;;;10.80;99.90;;;;;;4995033;28;19956;-66
2023/01/05 01:26:06;;;;;;;;;;;10.70;99.90;;;;;;4995555;28;20420;-66
2023/01/05 01:28:32;;;;;;;;;;;10.70;99.90;;;;;;4994775;28;19913;-66
2023/01/05 01:30:57;;;;;;;;;;;10.70;99.90;;;;;;4994959;28;19936;-66
2023/01/05 01:33:23;;;;;;;;;;;10.70;99.90;;;;;;4994259;28;19920;-66
2023/01/05 01:35:48;;;;;;;;;;;10.80;99.90;;;;;;4994957;28;20350;-66
2023/01/05 01:38:14;;;;;;;;;;;10.70;99.90;;;;;;4994483;28;20228;-66
2023/01/05 01:40:44;;;;;;;;;;;10.70;99.90;;;;;;4994879;28;19912;-66
2023/01/05 01:43:16;;;;;;;;;;;10.80;99.90;;;;;;4995252;28;19913;-66
2023/01/05 01:45:42;;;;;;;;;;;10.80;99.90;;;;;;4996505;28;19953;-66
2023/01/05 01:48:09;;;;;;;;;;;10.90;99.90;;;;;;4995151;28;19917;-66
2023/01/05 01:50:44;;;;;;;;;;;10.80;99.90;;;;;;4994904;28;19905;-65
2023/01/05 01:53:19;;;;;;;;;;;11.00;99.90;;;;;;4994393;28;19910;-67
2023/01/05 01:55:45;;;;;;;;;;;11.00;99.90;;;;;;4993801;28;19910;-66
2023/01/05 01:58:14;;;;;;;;;;;11.00;99.90;;;;;;4994628;28;19906;-66
2023/01/05 02:00:40;;;;;;;;;;;11.00;99.90;;;;;;4994697;28;19905;-65
2023/01/05 02:03:05;;;;;;;;;;;11.00;99.90;;;;;;4994484;28;19932;-65
2023/01/05 02:05:32;;;;;;;;;;;11.10;99.90;;;;;;4994119;28;19913;-66
2023/01/05 02:07:57;;;;;;;;;;;11.10;99.90;;;;;;4994374;28;20003;-66
2023/01/05 02:11:01;;;;;;;;;;;11.10;99.90;;;;;;4994922;28;19910;-66
2023/01/05 02:13:33;;;;;;;;;;;11.10;99.90;;;;;;4973194;28;19916;-66
2023/01/05 02:16:06;;;;;;;;;;;11.20;99.90;;;;;;4976365;28;20283;-66
2023/01/05 02:18:43;;;;;;;;;;;11.10;99.90;;;;;;4977147;28;19906;-65
2023/01/05 02:21:31;;;;;;;;;;;11.20;99.90;;;;;;4959270;28;19906;-66
2023/01/05 02:24:16;;;;;;;;;;;11.20;99.90;;;;;;4957794;29;19910;-66
2023/01/05 02:27:00;;;;;;;;;;;11.20;99.90;;;;;;4957609;28;19907;-66
2023/01/05 02:29:35;;;;;;;;;;;11.20;99.90;;;;;;4974369;28;19913;-67
2023/01/05 02:32:14;;;;;;;;;;;11.30;99.90;;;;;;4976446;28;19933;-66
2023/01/05 02:34:43;;;;;;;;;;;11.30;99.90;;;;;;4976315;28;20367;-66
2023/01/05 02:37:14;;;;;;;;;;;11.10;99.90;;;;;;4946036;29;19961;-66
2023/01/05 02:39:58;;;;;;;;;;;11.10;99.90;;;;;;4940750;29;19978;-66
2023/01/05 02:42:24;;;;;;;;;;;11.00;99.90;;;;;;4974372;28;19990;-66
2023/01/05 02:44:50;;;;;;;;;;;11.00;99.90;;;;;;4977878;28;19957;-66
2023/01/05 02:47:21;;;;;;;;;;;10.90;99.90;;;;;;4978024;28;19960;-66
2023/01/05 02:49:47;;;;;;;;;;;10.90;99.90;;;;;;4978059;28;19906;-66
2023/01/05 02:52:13;;;;;;;;;;;10.90;99.90;;;;;;4989156;28;19936;-66
2023/01/05 02:54:44;;;;;;;;;;;10.90;99.90;;;;;;4997243;28;20282;-66
2023/01/05 02:57:12;;;;;;;;;;;10.90;99.90;;;;;;4997635;28;19906;-66
2023/01/05 02:59:41;;;;;;;;;;;10.80;99.90;;;;;;4997223;28;20012;-66
2023/01/05 03:02:12;;;;;;;;;;;10.80;99.90;;;;;;4997232;28;19953;-65
2023/01/05 03:04:41;;;;;;;;;;;10.90;99.90;;;;;;4997296;28;20330;-65
2023/01/05 03:07:11;;;;;;;;;;;10.90;99.90;;;;;;4997983;28;19988;-65
2023/01/05 03:09:38;;;;;;;;;;;10.90;99.90;;;;;;4998450;28;19906;-66
2023/01/05 03:15:06;;;;;;;;;;;11.00;99.90;;;;;;4979917;28;19933;-66
2023/01/05 03:17:35;;;;;;;;;;;10.90;99.90;;;;;;4989235;28;19913;-66
2023/01/05 03:20:01;;;;;;;;;;;10.90;99.90;;;;;;4995972;28;19996;-66
2023/01/05 03:36:22;;;;;;;;;;;10.80;99.90;;;;;;4984986;28;20266;-66
2023/01/05 03:38:49;;;;;;;;;;;10.80;99.90;;;;;;4996415;28;19909;-66
2023/01/05 03:41:16;;;;;;;;;;;10.80;99.90;;;;;;4995253;28;19905;-66
2023/01/05 03:43:42;;;;;;;;;;;10.90;99.90;;;;;;4996343;28;20373;-66
2023/01/05 03:46:09;;;;;;;;;;;10.90;99.90;;;;;;4996394;28;19910;-65
2023/01/05 03:48:35;;;;;;;;;;;10.80;99.90;;;;;;4996681;28;20263;-66
2023/01/05 03:51:00;;;;;;;;;;;10.80;99.90;;;;;;4995604;28;19916;-66
2023/01/05 03:53:26;;;;;;;;;;;10.80;99.90;;;;;;4994540;28;20263;-66
2023/01/05 03:55:51;;;;;;;;;;;10.80;99.90;;;;;;4994818;28;19964;-66
2023/01/05 03:58:17;;;;;;;;;;;10.80;99.90;;;;;;4996079;28;19981;-66
2023/01/05 04:00:42;;;;;;;;;;;10.80;99.90;;;;;;4997028;28;19912;-66
2023/01/05 04:03:09;;;;;;;;;;;10.80;99.90;;;;;;4996224;28;19905;-65
2023/01/05 04:05:35;;;;;;;;;;;10.70;99.90;;;;;;4996023;28;19909;-66
2023/01/05 04:08:00;;;;;;;;;;;10.80;99.90;;;;;;4995593;28;19956;-67
2023/01/05 04:10:26;;;;;;;;;;;10.80;99.90;;;;;;4996203;28;20036;-66
2023/01/05 04:12:51;;;;;;;;;;;10.80;99.90;;;;;;4996269;28;20282;-66
2023/01/05 04:15:20;;;;;;;;;;;10.80;99.90;;;;;;4996001;28;20329;-66
2023/01/05 04:17:45;;;;;;;;;;;10.80;99.90;;;;;;4994470;28;19910;-67
2023/01/05 04:20:11;;;;;;;;;;;10.80;99.90;;;;;;4996437;28;19905;-66
2023/01/05 04:22:36;;;;;;;;;;;10.80;99.90;;;;;;5000352;28;19910;-66
2023/01/05 04:25:01;;;;;;;;;;;10.90;99.90;;;;;;4998954;28;19909;-67
2023/01/05 04:27:27;;;;;;;;;;;10.90;99.90;;;;;;4996848;28;19928;-66
2023/01/05 04:29:52;;;;;;;;;;;10.90;99.90;;;;;;4997711;28;19917;-66
2023/01/05 04:32:18;;;;;;;;;;;10.90;99.90;;;;;;4997583;28;19956;-66
2023/01/05 04:34:43;;;;;;;;;;;11.00;99.90;;;;;;4996120;28;19916;-66
2023/01/05 04:37:09;;;;;;;;;;;11.00;99.90;;;;;;4993396;28;19913;-65
2023/01/05 04:39:34;;;;;;;;;;;11.00;99.90;;;;;;4995637;28;20370;-66
2023/01/05 04:42:00;;;;;;;;;;;11.10;99.90;;;;;;4995606;28;20286;-66
2023/01/05 04:44:25;;;;;;;;;;;11.10;99.90;;;;;;4995224;28;20378;-66
2023/01/05 04:46:50;;;;;;;;;;;11.10;99.90;;;;;;4995308;28;19906;-66
2023/01/05 04:49:16;;;;;;;;;;;11.10;99.90;;;;;;4995818;28;19910;-66
2023/01/05 04:51:41;;;;;;;;;;;11.10;99.90;;;;;;4995188;28;20000;-66
2023/01/05 04:54:07;;;;;;;;;;;11.20;99.90;;;;;;4994753;28;19910;-66
2023/01/05 04:56:32;;;;;;;;;;;11.20;99.90;;;;;;4995280;28;19932;-66
2023/01/05 04:58:58;;;;;;;;;;;11.20;99.90;;;;;;4995297;28;19905;-67
2023/01/05 05:01:23;;;;;;;;;;;11.20;99.90;;;;;;4995128;28;19943;-67
2023/01/05 05:03:48;;;;;;;;;;;11.20;99.90;;;;;;4996018;28;19906;-66
2023/01/05 05:06:16;;;;;;;;;;;11.20;99.90;;;;;;4995700;28;19940;-66
2023/01/05 05:08:41;;;;;;;;;;;11.20;99.90;;;;;;4994703;28;19910;-66
2023/01/05 05:11:07;;;;;;;;;;;11.30;99.90;;;;;;4995082;28;20266;-67
2023/01/05 05:13:32;;;;;;;;;;;11.30;99.90;;;;;;4995653;28;19913;-66
2023/01/05 05:15:58;;;;;;;;;;;11.20;99.90;;;;;;4995706;28;20279;-66
2023/01/05 05:18:24;;;;;;;;;;;11.30;99.90;;;;;;4996313;28;20008;-66
2023/01/05 05:20:50;;;;;;;;;;;11.30;99.90;;;;;;4998127;28;19913;-67
2023/01/05 05:23:16;;;;;;;;;;;11.30;99.90;;;;;;4995238;28;19906;-65
2023/01/05 05:25:41;;;;;;;;;;;11.30;99.90;;;;;;4993130;28;20005;-67
2023/01/05 05:28:06;;;;;;;;;;;11.20;99.90;;;;;;4994567;28;19996;-66
2023/01/05 05:30:32;;;;;;;;;;;11.20;99.90;;;;;;4993174;28;19960;-66
2023/01/05 05:32:57;;;;;;;;;;;11.30;99.90;;;;;;4991620;28;20371;-66
2023/01/05 05:35:23;;;;;;;;;;;11.30;99.90;;;;;;4988251;28;19906;-66
2023/01/05 05:37:48;;;;;;;;;;;11.30;99.90;;;;;;4993768;28;19918;-66
2023/01/05 05:40:14;;;;;;;;;;;11.40;99.90;;;;;;4994786;28;19956;-66
2023/01/05 05:42:39;;;;;;;;;;;11.40;99.90;;;;;;4994375;28;20387;-66
2023/01/05 05:45:05;;;;;;;;;;;11.30;99.90;;;;;;4993764;28;20263;-66
2023/01/05 05:47:30;;;;;;;;;;;11.30;99.90;;;;;;4991776;28;19913;-66
2023/01/05 05:49:56;;;;;;;;;;;11.30;99.90;;;;;;4992720;28;19909;-66
2023/01/05 05:52:21;;;;;;;;;;;11.30;99.90;;;;;;4989974;28;19912;-66
2023/01/05 05:54:47;;;;;;;;;;;11.40;99.90;;;;;;4993845;28;20294;-66
2023/01/05 05:57:12;;;;;;;;;;;11.40;99.90;;;;;;4994011;28;20009;-66
2023/01/05 05:59:38;;;;;;;;;;;11.40;99.90;;;;;;4993976;28;19960;-66
2023/01/05 06:02:03;;;;;;;;;;;11.40;99.90;;;;;;4994066;28;19909;-66
2023/01/05 06:04:28;;;;;;;;;;;11.40;99.90;;;;;;4993903;28;19968;-66
2023/01/05 06:06:54;;;;;;;;;;;11.50;99.90;;;;;;4994408;28;20001;-66
2023/01/05 06:09:19;;;;;;;;;;;11.50;99.90;;;;;;4994015;28;19993;-66
2023/01/05 06:11:45;;;;;;;;;;;11.50;99.90;;;;;;4994790;28;20409;-66
2023/01/05 06:14:10;;;;;;;;;;;11.40;99.90;;;;;;4990103;28;19906;-66
2023/01/05 06:16:36;;;;;;;;;;;11.40;99.90;;;;;;4992742;28;19916;-66
2023/01/05 06:19:01;;;;;;;;;;;11.40;99.90;;;;;;4994416;28;20397;-65
2023/01/05 06:21:27;;;;;;;;;;;11.40;99.90;;;;;;4994110;28;20282;-66
2023/01/05 06:23:52;;;;;;;;;;;11.40;99.90;;;;;;4993579;28;19906;-66
2023/01/05 06:26:18;;;;;;;;;;;11.40;99.90;;;;;;4993981;28;19963;-65
2023/01/05 06:28:44;;;;;;;;;;;11.40;99.90;;;;;;4994590;28;19932;-66
2023/01/05 06:31:09;;;;;;;;;;;11.30;99.90;;;;;;4995127;28;20429;-66
2023/01/05 06:33:35;;;;;;;;;;;11.40;99.90;;;;;;4994528;28;19906;-66
2023/01/05 06:36:00;;;;;;;;;;;11.40;99.90;;;;;;5000389;28;19911;-67
2023/01/05 06:38:26;;;;;;;;;;;11.40;99.90;;;;;;4998396;28;19956;-65
2023/01/05 06:40:53;;;;;;;;;;;11.30;99.90;;;;;;4993738;28;19909;-66
2023/01/05 06:43:19;;;;;;;;;;;11.30;99.90;;;;;;4993826;28;19905;-66
2023/01/05 06:45:44;;;;;;;;;;;11.30;99.90;;;;;;4992321;28;20009;-66
2023/01/05 06:48:09;;;;;;;;;;;11.30;99.90;;;;;;4993575;28;19910;-66
2023/01/05 06:50:35;;;;;;;;;;;11.30;99.90;;;;;;4994000;28;19913;-66
2023/01/05 06:53:01;;;;;;;;;;;11.30;99.90;;;;;;4992339;28;20422;-67
2023/01/05 06:55:26;;;;;;;;;;;11.20;99.90;;;;;;4992564;28;20391;-66
2023/01/05 06:57:51;;;;;;;;;;;11.20;99.90;;;;;;4992549;28;19906;-66
2023/01/05 07:00:17;;;;;;;;;;;11.20;99.90;;;;;;4994227;28;19906;-67
2023/01/05 07:02:43;;;;;;;;;;;11.20;99.90;;;;;;4997281;28;19910;-67
2023/01/05 07:05:08;;;;;;;;;;;11.20;99.90;;;;;;4997199;28;19910;-67
2023/01/05 07:07:34;;;;;;;;;;;11.20;99.90;;;;;;4996440;28;20426;-66
2023/01/05 07:09:59;;;;;;;;;;;11.30;99.90;;;;;;4997055;28;19906;-67
2023/01/05 07:12:25;;;;;;;;;;;11.30;99.90;;;;;;4997069;28;19932;-66
2023/01/05 07:14:50;;;;;;;;;;;11.30;99.90;;;;;;4998225;28;19913;-66
2023/01/05 07:17:16;;;;;;;;;;;11.20;99.90;;;;;;4998478;28;19925;-66
2023/01/05 07:19:41;;;;;;;;;;;11.30;99.90;;;;;;4996874;28;19952;-66
2023/01/05 07:22:07;;;;;;;;;;;11.20;99.90;;;;;;4996839;28;19914;-66
2023/01/05 07:24:32;;;;;;;;;;;11.30;99.90;;;;;;4996544;28;19914;-66
2023/01/05 07:26:58;;;;;;;;;;;11.20;99.90;;;;;;4997093;28;19913;-66
2023/01/05 07:29:24;;;;;;;;;;;11.20;99.90;;;;;;4996445;28;19916;-66
2023/01/05 07:31:51;;;;;;;;;;;11.20;99.90;;;;;;4996690;28;19905;-66
2023/01/05 07:34:17;;;;;;;;;;;11.20;99.90;;;;;;4996310;28;19914;-66
2023/01/05 07:36:42;;;;;;;;;;;11.30;99.90;;;;;;4995880;28;19917;-65
2023/01/05 07:39:07;;;;;;;;;;;11.30;99.90;;;;;;4996143;28;19916;-66
2023/01/05 07:41:33;;;;;;;;;;;11.30;99.90;;;;;;4996225;28;19914;-66
2023/01/05 07:43:58;;;;;;;;;;;11.30;99.90;;;;;;4996092;28;19929;-66
2023/01/05 07:46:24;;;;;;;;;;;11.40;99.90;;;;;;4996499;28;19910;-66
2023/01/05 07:48:49;;;;;;;;;;;11.40;99.90;;;;;;4988855;28;19906;-66
2023/01/05 07:51:15;;;;;;;;;;;11.50;99.90;;;;;;5010859;28;20345;-66
2023/01/05 07:53:40;;;;;;;;;;;11.50;99.90;;;;;;5004914;28;19916;-67
2023/01/05 07:56:06;;;;;;;;;;;11.60;99.90;;;;;;4995677;28;20208;-66
2023/01/05 07:58:32;;;;;;;;;;;11.60;99.90;;;;;;4985712;28;19953;-67
2023/01/05 08:01:01;;;;;;;;;;;11.70;99.90;;;;;;5007162;28;19916;-67
2023/01/05 08:03:27;;;;;;;;;;;11.70;99.90;;;;;;5008427;28;20359;-67
2023/01/05 08:05:52;;;;;;;;;;;11.70;99.90;;;;;;5010954;28;19920;-67
2023/01/05 08:08:18;;;;;;;;;;;11.70;99.90;;;;;;4994711;28;19984;-67
2023/01/05 08:10:43;;;;;;;;;;;11.60;99.90;;;;;;4996412;28;20472;-67
2023/01/05 08:15:54;;;;;;;;;;;11.50;99.90;;;;;;4996465;28;19912;-67
2023/01/05 08:18:20;;;;;;;;;;;11.60;99.90;;;;;;4995810;28;20059;-67
2023/01/05 08:20:53;;;;;;;;;;;11.60;99.90;;;;;;4995617;28;19909;-67
2023/01/05 08:23:19;;;;;;;;;;;11.60;99.90;;;;;;4993569;28;19905;-66
2023/01/05 08:25:44;;;;;;;;;;;11.70;99.90;;;;;;4997146;28;20389;-66
2023/01/05 08:28:10;;;;;;;;;;;11.70;99.90;;;;;;4995515;28;19906;-66
2023/01/05 08:30:35;;;;;;;;;;;11.70;99.90;;;;;;4996200;28;19960;-66
2023/01/05 08:33:00;;;;;;;;;;;11.70;99.90;;;;;;4996677;28;19906;-66
2023/01/05 08:35:26;;;;;;;;;;;11.70;99.90;;;;;;4995431;28;19953;-66
2023/01/05 08:37:51;;;;;;;;;;;11.70;99.90;;;;;;4995826;28;20001;-68
2023/01/05 08:40:17;;;;;;;;;;;11.70;99.90;;;;;;4994712;28;19936;-72
2023/01/05 08:42:44;;;;;;;;;;;11.80;99.90;;;;;;4994275;28;19969;-77
2023/01/05 08:45:09;;;;;;;;;;;11.80;99.90;;;;;;4994713;28;19910;-75
2023/01/05 08:47:35;;;;;;;;;;;11.70;99.90;;;;;;4995155;28;20378;-74
2023/01/05 08:50:00;;;;;;;;;;;11.70;99.90;;;;;;4994440;28;19906;-74
2023/01/05 08:52:26;;;;;;;;;;;11.80;99.90;;;;;;4995482;28;20019;-73
2023/01/05 08:54:51;;;;;;;;;;;11.80;99.90;;;;;;4996081;28;20291;-75
2023/01/05 08:57:16;;;;;;;;;;;11.80;99.90;;;;;;4994213;28;19906;-75
2023/01/05 08:59:42;;;;;;;;;;;11.80;99.90;;;;;;4995462;28;19948;-76
2023/01/05 09:02:11;;;;;;;;;;;11.90;99.90;;;;;;4994292;28;19913;-73
2023/01/05 09:04:37;;;;;;;;;;;11.80;99.90;;;;;;4995542;28;19980;-76
2023/01/05 09:07:03;;;;;;;;;;;11.90;99.90;;;;;;4994944;28;20366;-73
2023/01/05 09:09:28;;;;;;;;;;;11.80;99.90;;;;;;5003225;28;19977;-77
2023/01/05 09:11:54;;;;;;;;;;;11.80;99.90;;;;;;4994824;28;19913;-76
2023/01/05 09:14:19;;;;;;;;;;;11.90;99.90;;;;;;4990262;28;20005;-74
2023/01/05 09:16:45;;;;;;;;;;;11.90;99.90;;;;;;4986211;28;19906;-76
2023/01/05 09:19:10;;;;;;;;;;;11.90;99.90;;;;;;4996253;28;19913;-77
2023/01/05 09:21:38;;;;;;;;;;;11.90;99.90;;;;;;4993538;28;19913;-75
2023/01/05 09:24:04;;;;;;;;;;;12.00;99.90;;;;;;5006270;28;19913;-73
2023/01/05 09:26:30;;;;;;;;;;;11.90;99.90;;;;;;4999170;28;19917;-77
2023/01/05 09:28:55;;;;;;;;;;;11.90;99.90;;;;;;5003389;28;19910;-73
2023/01/05 09:31:21;;;;;;;;;;;12.00;99.90;;;;;;4992765;28;20009;-74
2023/01/05 09:33:47;;;;;;;;;;;12.00;99.90;;;;;;4993673;28;19917;-72
2023/01/05 09:36:14;;;;;;;;;;;12.00;99.90;;;;;;5001905;28;19905;-75
2023/01/05 09:38:40;;;;;;;;;;;12.00;99.90;;;;;;5014500;28;19917;-74
2023/01/05 09:41:32;;;;;;;;;;;12.00;99.90;;;;;;5019094;28;19905;-76
2023/01/05 09:43:59;;;;;;;;;;;12.10;99.90;;;;;;4961861;28;19960;-77
2023/01/05 09:46:35;;;;;;;;;;;12.10;99.90;;;;;;4958891;28;19910;-73
2023/01/05 09:49:03;;;;;;;;;;;12.20;99.90;;;;;;4957620;28;19964;-73
2023/01/05 09:51:29;;;;;;;;;;;12.20;99.90;;;;;;4973242;28;20319;-76
2023/01/05 09:53:55;;;;;;;;;;;12.30;99.90;;;;;;4957167;28;19910;-76
2023/01/05 09:56:26;;;;;;;;;;;12.30;99.90;;;;;;4957179;28;20370;-76
2023/01/05 09:58:51;;;;;;;;;;;12.30;99.90;;;;;;4959927;28;19917;-78
2023/01/05 10:01:17;;;;;;;;;;;12.40;99.90;;;;;;4977620;28;19909;-76
2023/01/05 10:03:49;;;;;;;;;;;12.30;99.90;;;;;;4950915;28;19910;-71
2023/01/05 10:06:15;;;;;;;;;;;12.40;99.90;;;;;;4953341;28;19929;-76
2023/01/05 10:08:45;;;;;;;;;;;12.50;99.90;;;;;;4972280;28;20339;-72
2023/01/05 10:14:13;;;;;;;;;;;12.50;99.90;;;;;;4960079;28;20264;-76
2023/01/05 10:16:42;;;;;;;;;;;12.50;99.90;;;;;;4941405;28;19906;-68
2023/01/05 10:19:15;;;;;;;;;;;12.60;99.90;;;;;;4972707;28;19910;-67
2023/01/05 10:21:46;;;;;;;;;;;12.70;99.90;;;;;;4974244;28;19906;-73
2023/01/05 10:24:14;;;;;;;;;;;12.70;99.90;;;;;;4974606;28;20012;-71
2023/01/05 10:26:44;;;;;;;;;;;12.80;99.90;;;;;;4973645;28;19913;-72
2023/01/05 10:29:11;;;;;;;;;;;12.80;99.90;;;;;;4973789;28;19906;-71
2023/01/05 10:31:37;;;;;;;;;;;12.80;99.90;;;;;;4973646;28;19906;-70
2023/01/05 10:34:13;;;;;;;;;;;12.80;99.90;;;;;;4973301;28;19977;-71
2023/01/05 10:36:54;;;;;;;;;;;12.80;99.90;;;;;;4976954;28;20379;-71
2023/01/05 10:39:28;;;;;;;;;;;12.80;99.90;;;;;;4978127;28;19957;-72
2023/01/05 10:42:23;;;;;;;;;;;12.80;99.90;;;;;;4977377;28;19965;-71
2023/01/05 10:44:57;;;;;;;;;;;12.80;99.90;;;;;;4969598;28;19915;-70
2023/01/05 10:47:24;;;;;;;;;;;12.90;99.90;;;;;;4978697;28;19907;-69
2023/01/05 10:49:49;;;;;;;;;;;13.00;99.90;;;;;;4979310;28;19906;-70
2023/01/05 10:52:16;;;;;;;;;;;13.00;99.90;;;;;;4997208;28;19920;-72
2023/01/05 10:54:42;;;;;;;;;;;12.90;99.90;;;;;;4997553;28;19913;-72
2023/01/05 10:57:26;;;;;;;;;;;13.00;99.90;;;;;;4997479;28;19905;-67
2023/01/05 10:59:53;;;;;;;;;;;13.10;99.90;;;;;;4997322;28;19912;-69
2023/01/05 11:02:18;;;;;;;;;;;13.40;99.90;;;;;;4997290;28;19906;-66
2023/01/05 11:04:46;;;;;;;;;;;13.50;99.90;;;;;;4997153;28;19918;-67
2023/01/05 11:07:11;;;;;;;;;;;13.40;99.90;;;;;;4997292;28;19921;-66
2023/01/05 11:09:38;;;;;;;;;;;13.30;99.90;;;;;;4997582;28;19929;-66
2023/01/05 11:12:04;;;;;;;;;;;13.20;99.90;;;;;;4997296;28;19936;-66
2023/01/05 11:14:33;;;;;;;;;;;13.10;99.90;;;;;;4997038;28;19948;-66
2023/01/05 11:17:01;;;;;;;;;;;13.10;99.90;;;;;;4997499;28;19905;-65
2023/01/05 11:19:31;;;;;;;;;;;13.10;99.90;;;;;;4998414;28;19909;-66
2023/01/05 11:21:56;;;;;;;;;;;13.10;99.90;;;;;;4997438;28;20290;-66
2023/01/05 11:24:22;;;;;;;;;;;13.00;99.90;;;;;;4998125;28;19916;-66
2023/01/05 11:26:48;;;;;;;;;;;13.10;99.90;;;;;;4997360;28;19945;-66
2023/01/05 11:29:14;;;;;;;;;;;12.90;99.90;;;;;;4996631;28;20329;-65
2023/01/05 11:31:41;;;;;;;;;;;12.80;99.90;;;;;;4997123;28;19973;-66
2023/01/05 11:34:13;;;;;;;;;;;12.90;99.90;;;;;;4995111;28;20013;-68
2023/01/05 11:36:39;;;;;;;;;;;12.90;99.90;;;;;;4995600;28;19909;-69
2023/01/05 11:39:05;;;;;;;;;;;12.80;99.90;;;;;;4995622;28;19956;-68
2023/01/05 11:41:30;;;;;;;;;;;12.80;99.90;;;;;;4995123;28;19944;-71
2023/01/05 11:43:59;;;;;;;;;;;12.90;99.90;;;;;;4994372;28;19949;-69
2023/01/05 11:46:25;;;;;;;;;;;12.90;99.90;;;;;;4996763;28;19967;-69
2023/01/05 11:48:53;;;;;;;;;;;12.80;99.90;;;;;;4996486;28;19997;-73
2023/01/05 11:51:35;;;;;;;;;;;12.80;99.90;;;;;;5002649;28;19981;-75
2023/01/05 11:54:00;;;;;;;;;;;12.80;99.90;;;;;;4994946;28;20015;-75
2023/01/05 11:56:26;;;;;;;;;;;12.90;99.90;;;;;;4993715;28;20057;-72
2023/01/05 11:58:53;;;;;;;;;;;13.00;99.90;;;;;;4991071;28;19913;-73
2023/01/05 12:01:31;;;;;;;;;;;13.00;99.90;;;;;;4973922;28;19906;-71
2023/01/05 12:04:03;;;;;;;;;;;13.30;99.90;;;;;;4975346;28;19953;-70
2023/01/05 12:06:47;;;;;;;;;;;13.30;99.90;;;;;;4980168;28;19906;-69
2023/01/05 12:09:24;;;;;;;;;;;13.40;99.90;;;;;;4993611;28;20275;-70
2023/01/05 12:12:08;;;;;;;;;;;13.50;99.90;;;;;;4993959;28;19905;-71
2023/01/05 12:14:48;;;;;;;;;;;13.40;99.90;;;;;;4994122;28;19956;-69
2023/01/05 12:17:15;;;;;;;;;;;13.50;99.90;;;;;;4995814;28;19905;-72
2023/01/05 12:19:51;;;;;;;;;;;13.50;99.90;;;;;;4995515;28;19922;-68
2023/01/05 12:22:16;;;;;;;;;;;13.50;99.90;;;;;;4995347;28;20314;-68
2023/01/05 12:24:42;;;;;;;;;;;13.50;99.90;;;;;;4995867;28;20048;-67
2023/01/05 12:27:10;;;;;;;;;;;13.40;99.90;;;;;;4995929;28;19960;-67
2023/01/05 12:29:50;;;;;;;;;;;13.50;99.90;;;;;;4995531;28;19906;-68
2023/01/05 12:32:26;;;;;;;;;;;13.50;99.90;;;;;;4975743;28;19982;-67
2023/01/05 12:35:00;;;;;;;;;;;13.50;99.90;;;;;;4976422;28;19910;-68
2023/01/05 12:37:49;;;;;;;;;;;13.50;99.90;;;;;;4987416;28;20337;-67
2023/01/05 12:40:14;;;;;;;;;;;13.40;99.90;;;;;;4995389;28;19944;-67
2023/01/05 12:42:39;;;;;;;;;;;13.30;99.90;;;;;;4993814;28;19906;-67
2023/01/05 12:45:17;;;;;;;;;;;13.40;99.90;;;;;;4984651;28;19914;-67
2023/01/05 12:47:51;;;;;;;;;;;13.30;99.90;;;;;;4991757;28;19910;-67
2023/01/05 12:50:22;;;;;;;;;;;13.30;99.90;;;;;;4995877;28;19917;-67
2023/01/05 12:52:49;;;;;;;;;;;13.50;99.90;;;;;;4994653;28;19910;-66
2023/01/05 12:55:18;;;;;;;;;;;13.50;99.90;;;;;;4994939;28;19920;-67
2023/01/05 12:57:48;;;;;;;;;;;13.50;99.90;;;;;;4993075;28;19916;-67
2023/01/05 13:00:16;;;;;;;;;;;13.50;99.90;;;;;;4993858;28;19910;-67
2023/01/05 13:02:45;;;;;;;;;;;13.50;99.90;;;;;;4994499;28;19917;-67
2023/01/05 13:05:13;;;;;;;;;;;13.50;99.90;;;;;;4994720;28;19916;-66
2023/01/05 13:07:42;;;;;;;;;;;13.50;99.90;;;;;;4992109;28;19937;-67
2023/01/05 13:10:21;;;;;;;;;;;13.50;99.90;;;;;;4993672;28;19937;-66
2023/01/05 13:12:49;;;;;;;;;;;13.40;99.90;;;;;;4995402;28;19906;-67
2023/01/05 13:15:18;;;;;;;;;;;13.30;99.90;;;;;;4993425;28;19916;-67
2023/01/05 13:17:49;;;;;;;;;;;13.30;99.90;;;;;;4994589;28;20279;-70
2023/01/05 13:20:18;;;;;;;;;;;13.30;99.90;;;;;;4994618;28;20306;-69
2023/01/05 13:22:45;;;;;;;;;;;13.40;99.90;;;;;;4991321;28;19969;-69
2023/01/05 13:25:18;;;;;;;;;;;13.40;99.90;;;;;;4995081;28;19910;-72
2023/01/05 13:27:43;;;;;;;;;;;13.40;99.90;;;;;;4994908;28;19956;-69
2023/01/05 13:30:26;;;;;;;;;;;13.30;99.90;;;;;;4992974;28;19909;-68
2023/01/05 13:33:04;;;;;;;;;;;13.30;99.90;;;;;;4984158;28;19913;-68
2023/01/05 13:35:30;;;;;;;;;;;13.40;99.90;;;;;;4994880;28;19909;-69
2023/01/05 13:37:55;;;;;;;;;;;13.40;99.90;;;;;;4977577;28;19993;-68
2023/01/05 13:40:40;;;;;;;;;;;13.30;99.90;;;;;;4977159;28;20393;-73
2023/01/05 13:43:29;;;;;;;;;;;13.30;99.90;;;;;;4977206;28;19906;-72
2023/01/05 13:46:00;;;;;;;;;;;13.30;99.90;;;;;;4972393;28;19918;-72
2023/01/05 13:48:33;;;;;;;;;;;13.30;99.90;;;;;;4973719;28;19968;-71
2023/01/05 13:51:16;;;;;;;;;;;13.30;99.90;;;;;;4977057;28;19906;-72
2023/01/05 13:53:43;;;;;;;;;;;13.20;99.90;;;;;;4975357;28;19960;-72
2023/01/05 13:56:22;;;;;;;;;;;13.10;99.90;;;;;;4985589;28;20339;-69
2023/01/05 13:58:57;;;;;;;;;;;13.10;99.90;;;;;;4993199;28;19906;-75
2023/01/05 14:01:33;;;;;;;;;;;13.10;99.90;;;;;;4997512;28;19916;-72
2023/01/05 14:03:58;;;;;;;;;;;13.00;99.90;;;;;;4992881;28;19906;-74
2023/01/05 14:06:26;;;;;;;;;;;13.00;99.90;;;;;;4997539;28;19975;-69
2023/01/05 14:08:54;;;;;;;;;;;13.10;99.90;;;;;;5012766;28;19909;-77
2023/01/05 14:11:21;;;;;;;;;;;13.00;99.90;;;;;;5017153;28;20351;-75
2023/01/05 14:14:03;;;;;;;;;;;12.90;99.90;;;;;;5018306;28;19963;-73
2023/01/05 14:16:32;;;;;;;;;;;13.00;99.90;;;;;;5017015;28;20362;-71
2023/01/05 14:19:12;;;;;;;;;;;13.00;99.90;;;;;;5018245;28;19952;-70
2023/01/05 14:21:55;;;;;;;;;;;12.90;99.90;;;;;;5017960;28;19905;-70
2023/01/05 14:24:23;;;;;;;;;;;12.90;99.90;;;;;;5016201;28;19984;-68
2023/01/05 14:26:57;;;;;;;;;;;12.90;99.90;;;;;;5006586;28;19916;-72
2023/01/05 14:29:59;;;;;;;;;;;12.90;99.90;;;;;;4996713;28;19906;-71
2023/01/05 14:32:27;;;;;;;;;;;12.90;99.90;;;;;;4960749;28;19905;-75
2023/01/05 14:34:55;;;;;;;;;;;12.90;99.90;;;;;;4976842;28;19906;-66
2023/01/05 14:37:23;;;;;;;;;;;12.90;99.90;;;;;;4976059;28;19984;-67
2023/01/05 14:39:52;;;;;;;;;;;12.90;99.90;;;;;;4976479;28;19910;-68
2023/01/05 14:42:31;;;;;;;;;;;12.90;99.90;;;;;;4960109;28;19913;-68
2023/01/05 14:45:01;;;;;;;;;;;12.80;99.90;;;;;;4976681;28;20315;-68
2023/01/05 14:47:34;;;;;;;;;;;12.90;99.90;;;;;;4976288;28;19949;-68
2023/01/05 14:50:03;;;;;;;;;;;12.90;99.90;;;;;;4976169;28;19909;-69
2023/01/05 14:52:47;;;;;;;;;;;12.90;99.90;;;;;;4960131;28;20005;-69
2023/01/05 14:55:20;;;;;;;;;;;12.90;99.90;;;;;;4959788;28;19906;-69
2023/01/05 14:57:47;;;;;;;;;;;12.80;99.90;;;;;;4960465;28;19906;-69